Map

Track Data

SID SEASON NUMBER BASIN SUBBASIN NAME ISO_TIME NATURE LAT LON WMO_WIND WMO_PRES WMO_AGENCY TRACK_TYPE DIST2LAND LANDFALL IFLAG USA_AGENCY USA_ATCF_ID USA_LAT USA_LON USA_RECORD USA_STATUS USA_WIND USA_PRES USA_SSHS USA_R34_NE USA_R34_SE USA_R34_SW USA_R34_NW USA_R50_NE USA_R50_SE USA_R50_SW USA_R50_NW USA_R64_NE USA_R64_SE USA_R64_SW USA_R64_NW USA_POCI USA_ROCI USA_RMW USA_EYE TOKYO_LAT TOKYO_LON TOKYO_GRADE TOKYO_WIND TOKYO_PRES TOKYO_R50_DIR TOKYO_R50_LONG TOKYO_R50_SHORT TOKYO_R30_DIR TOKYO_R30_LONG TOKYO_R30_SHORT TOKYO_LAND CMA_LAT CMA_LON CMA_CAT CMA_WIND CMA_PRES HKO_LAT HKO_LON HKO_CAT HKO_WIND HKO_PRES NEWDELHI_LAT NEWDELHI_LON NEWDELHI_GRADE NEWDELHI_WIND NEWDELHI_PRES NEWDELHI_CI NEWDELHI_DP NEWDELHI_POCI REUNION_LAT REUNION_LON REUNION_TYPE REUNION_WIND REUNION_PRES REUNION_TNUM REUNION_CI REUNION_RMW REUNION_R34_NE REUNION_R34_SE REUNION_R34_SW REUNION_R34_NW REUNION_R50_NE REUNION_R50_SE REUNION_R50_SW REUNION_R50_NW REUNION_R64_NE REUNION_R64_SE REUNION_R64_SW REUNION_R64_NW BOM_LAT BOM_LON BOM_TYPE BOM_WIND BOM_PRES BOM_TNUM BOM_CI BOM_RMW BOM_R34_NE BOM_R34_SE BOM_R34_SW BOM_R34_NW BOM_R50_NE BOM_R50_SE BOM_R50_SW BOM_R50_NW BOM_R64_NE BOM_R64_SE BOM_R64_SW BOM_R64_NW BOM_ROCI BOM_POCI BOM_EYE BOM_POS_METHOD BOM_PRES_METHOD NADI_LAT NADI_LON NADI_CAT NADI_WIND NADI_PRES WELLINGTON_LAT WELLINGTON_LON WELLINGTON_WIND WELLINGTON_PRES DS824_LAT DS824_LON DS824_STAGE DS824_WIND DS824_PRES TD9636_LAT TD9636_LON TD9636_STAGE TD9636_WIND TD9636_PRES TD9635_LAT TD9635_LON TD9635_WIND TD9635_PRES TD9635_ROCI NEUMANN_LAT NEUMANN_LON NEUMANN_CLASS NEUMANN_WIND NEUMANN_PRES MLC_LAT MLC_LON MLC_CLASS MLC_WIND MLC_PRES USA_GUST BOM_GUST BOM_GUST_PER REUNION_GUST REUNION_GUST_PER USA_SEAHGT USA_SEARAD_NE USA_SEARAD_SE USA_SEARAD_SW USA_SEARAD_NW STORM_SPEED STORM_DIR
1971246N12264 1971 105 EP MM NANETTE 1971-09-03 00:00:00 TS 12.2000 -95.6000 25 hurdat_epa main 395 377 O________OO___ hurdat_epa EP141971 12.2000 -95.6000 TD 25 -1 12.2000 -95.6000 TC 25 12.2000 -95.6000 1 7 286
1971246N12264 1971 105 EP MM NANETTE 1971-09-03 03:00:00 TS 12.3002 -95.9578 main 375 359 P________PP___ EP141971 12.3001 -95.9575 TD 25 -1 12.3001 -95.9575 TC 25 12.3005 -95.9590 1 7 286
1971246N12264 1971 105 EP MM NANETTE 1971-09-03 06:00:00 TS 12.4001 -96.3009 25 hurdat_epa main 359 347 O________OP___ hurdat_epa EP141971 12.4000 -96.3000 TD 25 -1 12.4000 -96.3000 TC 25 12.4006 -96.3046 1 7 287
1971246N12264 1971 105 EP MM NANETTE 1971-09-03 09:00:00 TS 12.5000 -96.6166 main 347 336 P________PP___ EP141971 12.5000 -96.6150 TD 25 -1 12.5000 -96.6150 TC 25 12.5004 -96.6228 1 6 289
1971246N12264 1971 105 EP MM NANETTE 1971-09-03 12:00:00 TS 12.6000 -96.9000 25 hurdat_epa main 337 327 O________OO___ hurdat_epa EP141971 12.6000 -96.9000 TD 25 -1 12.6000 -96.9000 TC 25 12.6000 -96.9000 1 6 290
1971246N12264 1971 105 EP MM NANETTE 1971-09-03 15:00:00 TS 12.6942 -97.1580 main 331 322 P________PP___ EP141971 12.6925 -97.1650 TD 25 -1 12.6925 -97.1650 TC 25 12.7012 -97.1297 1 5 293
1971246N12264 1971 105 EP MM NANETTE 1971-09-03 18:00:00 TS 12.8024 -97.3871 25 hurdat_epa main 325 317 O________OP___ hurdat_epa EP141971 12.8000 -97.4000 TD 25 -1 12.8000 -97.4000 TC 25 12.8120 -97.3355 1 5 301
1971246N12264 1971 105 EP MM NANETTE 1971-09-03 21:00:00 TS 12.9363 -97.5778 main 320 303 P________PP___ EP141971 12.9349 -97.5851 TD 25 -1 12.9349 -97.5851 TC 25 12.9418 -97.5486 1 5 306
1971246N12264 1971 105 EP MM NANETTE 1971-09-04 00:00:00 TS 13.1000 -97.8000 25 hurdat_epa main 308 302 O________OO___ hurdat_epa EP141971 13.1000 -97.8000 TD 25 -1 13.1000 -97.8000 TC 25 13.1000 -97.8000 1 6 304
1971246N12264 1971 105 EP MM NANETTE 1971-09-04 03:00:00 TS 13.2856 -98.1168 main 302 287 P________PP___ EP141971 13.2850 -98.1200 TD 25 -1 13.2850 -98.1200 TC 25 13.2879 -98.1037 1 8 301
1971246N12264 1971 105 EP MM NANETTE 1971-09-04 06:00:00 TS 13.5009 -98.4906 25 hurdat_epa main 289 275 O________OP___ hurdat_epa EP141971 13.5000 -98.5000 TD 25 -1 13.5000 -98.5000 TC 25 13.5046 -98.4530 1 9 302
1971246N12264 1971 105 EP MM NANETTE 1971-09-04 09:00:00 TS 13.7367 -98.8663 main 283 265 P________PP___ EP141971 13.7348 -98.8702 TD 25 -1 13.7348 -98.8702 TC 25 13.7440 -98.8508 1 9 302
1971246N12264 1971 105 EP MM NANETTE 1971-09-04 12:00:00 TS 14.0000 -99.3000 25 hurdat_epa main 268 258 O________OO___ hurdat_epa EP141971 14.0000 -99.3000 TD 25 -1 14.0000 -99.3000 TC 25 14.0000 -99.3000 2 11 301
1971246N12264 1971 105 EP MM NANETTE 1971-09-04 15:00:00 TS 14.2955 -99.8315 main 258 243 P________PP___ EP141971 14.3000 -99.8275 TD 35 0 14.3000 -99.8275 TC 35 14.2777 -99.8477 2 12 299
1971246N12264 1971 105 EP MM NANETTE 1971-09-04 18:00:00 TS 14.5932 -100.407 45 hurdat_epa main 246 239 O________OP___ hurdat_epa EP141971 14.6000 -100.400 TS 45 0 14.6000 -100.400 TC 45 14.5662 -100.436 2 13 297
1971246N12264 1971 105 EP MM NANETTE 1971-09-04 21:00:00 TS 14.8614 -100.997 main 244 243 P________PP___ EP141971 14.8651 -100.995 TS 45 0 14.8651 -100.995 TC 45 14.8465 -101.007 2 12 296
1971246N12264 1971 105 EP MM NANETTE 1971-09-05 00:00:00 TS 15.1000 -101.500 45 hurdat_epa main 246 232 O________OO___ hurdat_epa EP141971 15.1000 -101.500 TS 45 0 15.1000 -101.500 TC 45 15.1000 -101.500 2 9 300
1971246N12264 1971 105 EP MM NANETTE 1971-09-05 03:00:00 TS 15.3107 -101.794 main 235 223 P________PP___ EP141971 15.3148 -101.795 TS 45 0 15.3148 -101.795 TC 45 15.2943 -101.789 2 6 309
1971246N12264 1971 105 EP MM NANETTE 1971-09-05 06:00:00 TS 15.4926 -102.000 45 hurdat_epa main 223 218 O________OP___ hurdat_epa EP141971 15.5000 -102.000 TS 45 0 15.5000 -102.000 TC 45 15.4632 -102.002 2 5 310
1971246N12264 1971 105 EP MM NANETTE 1971-09-05 09:00:00 TS 15.6449 -102.207 main 223 214 P________PP___ EP141971 15.6498 -102.205 TS 45 0 15.6498 -102.205 TC 45 15.6255 -102.214 2 6 303
1971246N12264 1971 105 EP MM NANETTE 1971-09-05 12:00:00 TS 15.8000 -102.500 45 hurdat_epa main 224 222 O________OO___ hurdat_epa EP141971 15.8000 -102.500 TS 45 0 15.8000 -102.500 TC 45 15.8000 -102.500 2 8 294
1971246N12264 1971 105 EP MM NANETTE 1971-09-05 15:00:00 TS 15.9840 -103.010 main 225 221 P________PP___ EP141971 15.9851 -103.005 TS 45 0 15.9851 -103.005 TC 45 15.9795 -103.032 2 11 290
1971246N12264 1971 105 EP MM NANETTE 1971-09-05 18:00:00 TS 16.1954 -103.607 45 hurdat_epa main 225 221 O________OP___ hurdat_epa EP141971 16.2000 -103.600 TS 45 0 16.2000 -103.600 TC 45 16.1771 -103.637 2 12 291
1971246N12264 1971 105 EP MM NANETTE 1971-09-05 21:00:00 TS 16.4183 -104.213 main 225 217 P________PP___ EP141971 16.4202 -104.210 TS 60 0 16.4202 -104.210 TC 60 16.4108 -104.223 2 12 296
1971246N12264 1971 105 EP MM NANETTE 1971-09-06 00:00:00 TS 16.7000 -104.700 75 hurdat_epa main 219 207 O________OO___ hurdat_epa EP141971 16.7000 -104.700 HU 75 1 16.7000 -104.700 TC 75 16.7000 -104.700 4 9 314
1971246N12264 1971 105 EP MM NANETTE 1971-09-06 03:00:00 TS 17.0658 -104.914 main 200 182 P________PP___ EP141971 17.0697 -104.918 HU 75 1 17.0697 -104.918 TC 75 17.0500 -104.900 4 8 340
1971246N12264 1971 105 EP MM NANETTE 1971-09-06 06:00:00 TS 17.4917 -104.998 75 hurdat_epa main 182 148 O________OP___ hurdat_epa EP141971 17.5000 -105.000 HU 75 1 17.5000 -105.000 TC 75 17.4584 -104.990 4 9 351
1971246N12264 1971 105 EP MM NANETTE 1971-09-06 09:00:00 TS 17.9244 -105.062 main 148 98 P________PP___ EP141971 17.9273 -105.063 HU 75 1 17.9273 -105.063 TC 75 17.9126 -105.060 4 9 348
1971246N12264 1971 105 EP MM NANETTE 1971-09-06 12:00:00 TS 18.4000 -105.200 75 hurdat_epa main 98 76 O________OO___ hurdat_epa EP141971 18.4000 -105.200 HU 75 1 18.4000 -105.200 TC 75 18.4000 -105.200 4 11 336
1971246N12264 1971 105 EP MM NANETTE 1971-09-06 15:00:00 TS 18.9399 -105.544 main 76 68 P________PP___ EP141971 18.9426 -105.547 HU 77 1 18.9426 -105.547 TC 77 18.9290 -105.530 4 13 326
1971246N12264 1971 105 EP MM NANETTE 1971-09-06 18:00:00 TS 19.4961 -105.989 80 990 hurdat_epa main 76 68 O________OP___ hurdat_epa EP141971 19.5000 -106.000 HU 80 990 1 19.5000 -106.000 TC 80 990 19.4803 -105.943 4 14 322
1971246N12264 1971 105 EP MM NANETTE 1971-09-06 21:00:00 TS 20.0212 -106.436 main 85 85 P________PP___ EP141971 20.0224 -106.443 HU 82 1 20.0224 -106.443 TC 82 20.0164 -106.411 4 13 320
1971246N12264 1971 105 EP MM NANETTE 1971-09-07 00:00:00 TS 20.5000 -106.900 85 hurdat_epa main 125 125 O________OO___ hurdat_epa EP141971 20.5000 -106.900 HU 85 2 20.5000 -106.900 TC 85 20.5000 -106.900 4 13 317
1971246N12264 1971 105 EP MM NANETTE 1971-09-07 03:00:00 TS 20.9351 -107.340 main 175 175 P________PP___ EP141971 20.9373 -107.343 HU 80 1 20.9373 -107.343 TC 80 20.9262 -107.329 4 12 314
1971246N12264 1971 105 EP MM NANETTE 1971-09-07 06:00:00 TS 21.2982 -107.795 75 hurdat_epa main 240 219 O________OP___ hurdat_epa EP141971 21.3000 -107.800 HU 75 1 21.3000 -107.800 TC 75 21.2909 -107.775 4 11 307
1971246N12264 1971 105 EP MM NANETTE 1971-09-07 09:00:00 TS 21.5868 -108.268 main 211 160 P________PP___ EP141971 21.5872 -108.270 HU 72 1 21.5872 -108.270 TC 72 21.5853 -108.259 4 11 298
1971246N12264 1971 105 EP MM NANETTE 1971-09-07 12:00:00 TS 21.8000 -108.800 70 hurdat_epa main 160 108 O________OO___ hurdat_epa EP141971 21.8000 -108.800 HU 70 1 21.8000 -108.800 TC 70 21.8000 -108.800 4 11 290
1971246N12264 1971 105 EP MM NANETTE 1971-09-07 15:00:00 TS 21.9867 -109.423 main 108 89 P________PP___ EP141971 21.9949 -109.420 HU 67 1 21.9949 -109.420 TC 67 21.9540 -109.434 4 12 283
1971246N12264 1971 105 EP MM NANETTE 1971-09-07 18:00:00 TS 22.0857 -110.104 65 996 hurdat_epa main 90 90 O________OP___ hurdat_epa EP141971 22.1000 -110.100 HU 65 996 1 22.1000 -110.100 TC 65 996 22.0284 -110.121 4 13 274
1971246N12264 1971 105 EP MM NANETTE 1971-09-07 21:00:00 TS 22.0777 -110.811 main 121 121 P________PP___ EP141971 22.0875 -110.808 HU 62 0 22.0875 -110.808 TC 62 22.0384 -110.822 4 13 266
1971246N12264 1971 105 EP MM NANETTE 1971-09-08 00:00:00 TS 22.0000 -111.500 60 hurdat_epa main 184 184 O________OO___ hurdat_epa EP141971 22.0000 -111.500 TS 60 0 22.0000 -111.500 TC 60 22.0000 -111.500 2 12 262
1971246N12264 1971 105 EP MM NANETTE 1971-09-08 03:00:00 TS 21.9142 -112.121 main 243 243 P________PP___ EP141971 21.9072 -112.122 TS 57 0 21.9072 -112.122 TC 57 21.9422 -112.113 2 11 260
1971246N12264 1971 105 EP MM NANETTE 1971-09-08 06:00:00 TS 21.8088 -112.699 55 hurdat_epa main 302 302 O________OP___ hurdat_epa EP141971 21.8000 -112.700 TS 55 0 21.8000 -112.700 TC 55 21.8438 -112.696 2 11 259
1971246N12264 1971 105 EP MM NANETTE 1971-09-08 09:00:00 TS 21.7045 -113.257 main 348 348 P________PP___ EP141971 21.6997 -113.257 TS 52 0 21.6997 -113.257 TC 52 21.7236 -113.256 2 10 258
1971246N12264 1971 105 EP MM NANETTE 1971-09-08 12:00:00 TS 21.6000 -113.800 50 hurdat_epa main 383 383 O________OO___ hurdat_epa EP141971 21.6000 -113.800 TS 50 0 21.6000 -113.800 TC 50 21.6000 -113.800 2 10 259
1971246N12264 1971 105 EP MM NANETTE 1971-09-08 15:00:00 TS 21.4982 -114.356 main 428 428 P________PP___ EP141971 21.4999 -114.357 TS 50 0 21.4999 -114.357 TC 50 21.4914 -114.351 2 10 259
1971246N12264 1971 105 EP MM NANETTE 1971-09-08 18:00:00 TS 21.3969 -114.898 50 hurdat_epa main 466 466 O________OP___ hurdat_epa EP141971 21.4000 -114.900 TS 50 0 21.4000 -114.900 TC 50 21.3845 -114.887 2 10 258
1971246N12264 1971 105 EP MM NANETTE 1971-09-08 21:00:00 TS 21.2909 -115.413 main 508 508 P________PP___ EP141971 21.2923 -115.415 TS 47 0 21.2923 -115.415 TC 47 21.2853 -115.405 2 10 258
1971246N12264 1971 105 EP MM NANETTE 1971-09-09 00:00:00 TS 21.2000 -115.900 45 hurdat_epa main 551 551 O________OO___ hurdat_epa EP141971 21.2000 -115.900 TS 45 0 21.2000 -115.900 TC 45 21.2000 -115.900 2 9 260
1971246N12264 1971 105 EP MM NANETTE 1971-09-09 03:00:00 TS 21.1404 -116.360 main 596 596 P________PP___ EP141971 21.1423 -116.357 TS 35 0 21.1423 -116.357 TC 35 21.1329 -116.372 2 9 263
1971246N12264 1971 105 EP MM NANETTE 1971-09-09 06:00:00 TS 21.0962 -116.805 25 hurdat_epa main 626 626 O________OP___ hurdat_epa EP141971 21.1000 -116.800 TD 25 -1 21.1000 -116.800 TC 25 21.0808 -116.825 2 8 264
1971246N12264 1971 105 EP MM NANETTE 1971-09-09 09:00:00 TS 21.0499 -117.251 main 672 672 P________PP___ EP141971 21.0528 -117.248 TD 25 -1 21.0528 -117.248 TC 25 21.0382 -117.266 2 8 263
1971246N12264 1971 105 EP MM NANETTE 1971-09-09 12:00:00 TS 21.0000 -117.700 25 hurdat_epa main 705 O________OO___ hurdat_epa EP141971 21.0000 -117.700 TD 25 -1 21.0000 -117.700 TC 25 21.0000 -117.700 6 8 263

About IBTrACS Database

This database is a web-friendly format of International Best Track Archive for Climate Stewardship (IBTrACS), a global best track data archive curated by NOAA dating back to 1842.

Updated: 2021-11-26